createdAt,value
2023-02-27T00:00:14.671Z,5.85
2023-02-27T00:02:42.907Z,5.82
2023-02-27T00:05:11.641Z,5.78
2023-02-27T00:07:39.703Z,5.50
2023-02-27T00:10:11.795Z,5.25
2023-02-27T00:12:39.792Z,5.85
2023-02-27T00:15:09.642Z,5.82
2023-02-27T00:17:37.962Z,5.82
2023-02-27T00:20:07.149Z,5.05
2023-02-27T00:22:34.906Z,5.30
2023-02-27T00:25:02.654Z,5.63
2023-02-27T00:27:34.577Z,5.97
2023-02-27T00:30:02.559Z,5.20
2023-02-27T00:32:30.429Z,6.10
2023-02-27T00:35:01.642Z,5.47
2023-02-27T00:37:30.080Z,5.88
2023-02-27T00:39:57.807Z,5.70
2023-02-27T00:42:25.505Z,5.60
2023-02-27T00:44:54.600Z,5.65
2023-02-27T00:47:24.556Z,5.60
2023-02-27T00:49:52.249Z,5.32
2023-02-27T00:52:20.003Z,5.47
2023-02-27T00:54:50.372Z,5.63
2023-02-27T00:57:19.830Z,5.68
2023-02-27T00:59:48.549Z,5.75
2023-02-27T01:02:17.696Z,5.70
2023-02-27T01:04:48.792Z,5.35
2023-02-27T01:07:16.539Z,5.68
2023-02-27T01:09:44.767Z,6.00
2023-02-27T01:12:12.551Z,6.00
2023-02-27T01:14:40.532Z,5.22
2023-02-27T01:17:08.289Z,5.50
2023-02-27T01:19:37.518Z,5.05
2023-02-27T01:22:06.177Z,5.50
2023-02-27T01:24:34.166Z,5.15
2023-02-27T01:27:01.888Z,5.55
2023-02-27T01:29:29.605Z,5.65
2023-02-27T01:31:57.526Z,5.35
2023-02-27T01:34:25.360Z,5.13
2023-02-27T01:36:54.451Z,6.05
2023-02-27T01:39:22.207Z,5.35
2023-02-27T01:41:49.906Z,5.35
2023-02-27T01:44:17.630Z,5.57
2023-02-27T01:46:48.096Z,5.72
2023-02-27T01:49:19.383Z,5.80
2023-02-27T01:51:49.483Z,5.72
2023-02-27T01:54:25.434Z,5.88
2023-02-27T01:56:53.637Z,5.95
2023-02-27T01:59:22.710Z,6.20
2023-02-27T02:01:51.141Z,5.35
2023-02-27T02:04:25.596Z,5.95
2023-02-27T02:06:59.173Z,5.57
2023-02-27T02:09:30.512Z,6.10
2023-02-27T02:12:00.419Z,6.50
2023-02-27T02:14:28.424Z,6.65
2023-02-27T02:17:21.466Z,6.55
2023-02-27T02:20:09.151Z,6.43
2023-02-27T02:23:12.419Z,6.25
2023-02-27T02:26:19.745Z,5.90
2023-02-27T02:29:17.432Z,6.40
2023-02-27T02:32:10.764Z,5.93
2023-02-27T02:35:05.667Z,6.13
2023-02-27T02:38:18.063Z,5.93
2023-02-27T02:40:55.046Z,5.85
2023-02-27T02:43:33.190Z,5.90
2023-02-27T02:46:10.152Z,6.05
2023-02-27T02:48:48.008Z,6.72
2023-02-27T02:51:27.569Z,5.97
2023-02-27T02:54:03.737Z,6.63
2023-02-27T02:56:37.308Z,6.30
2023-02-27T02:59:11.814Z,6.00
2023-02-27T03:01:44.896Z,6.32
2023-02-27T03:04:20.864Z,6.32
2023-02-27T03:06:54.171Z,6.35
2023-02-27T03:09:28.715Z,6.65
2023-02-27T03:12:04.297Z,6.75
2023-02-27T03:14:41.490Z,6.45
2023-02-27T03:17:15.608Z,6.07
2023-02-27T03:19:50.924Z,6.43
2023-02-27T03:24:53.902Z,5.82
2023-02-27T03:27:33.908Z,6.78
2023-02-27T03:30:06.386Z,7.22
2023-02-27T03:32:39.169Z,6.75
2023-02-27T03:35:08.576Z,6.88
2023-02-27T03:37:44.956Z,6.10
2023-02-27T03:40:25.130Z,6.70
2023-02-27T03:43:02.847Z,6.47
2023-02-27T03:45:37.473Z,6.78
2023-02-27T03:48:11.290Z,5.97
2023-02-27T03:50:39.623Z,6.45
2023-02-27T03:53:15.220Z,6.88
2023-02-27T03:55:45.329Z,6.25
2023-02-27T03:58:15.126Z,6.30
2023-02-27T04:00:43.750Z,6.30
2023-02-27T04:03:12.187Z,6.88
2023-02-27T04:05:43.772Z,6.05
2023-02-27T04:08:24.131Z,6.05
2023-02-27T04:11:12.092Z,6.47
2023-02-27T04:14:09.744Z,6.55
2023-02-27T04:17:02.291Z,6.38
2023-02-27T04:19:45.757Z,6.60
2023-02-27T04:22:27.581Z,6.40
2023-02-27T04:25:02.570Z,6.68
2023-02-27T04:27:38.786Z,6.93
2023-02-27T04:30:20.811Z,6.10
2023-02-27T04:32:53.477Z,6.45
2023-02-27T04:35:31.442Z,6.47
2023-02-27T04:38:03.550Z,6.82
2023-02-27T04:40:39.144Z,6.63
2023-02-27T04:43:13.400Z,6.38
2023-02-27T04:45:44.709Z,6.97
2023-02-27T04:48:19.661Z,6.65
2023-02-27T04:50:53.833Z,6.35
2023-02-27T04:53:26.481Z,6.85
2023-02-27T04:55:58.847Z,7.10
2023-02-27T04:58:36.208Z,6.47
2023-02-27T05:01:12.713Z,6.03
2023-02-27T05:03:46.730Z,6.28
2023-02-27T05:06:28.638Z,6.25
2023-02-27T05:09:02.306Z,6.28
2023-02-27T05:11:35.456Z,6.95
2023-02-27T05:14:11.164Z,6.85
2023-02-27T05:16:45.684Z,6.88
2023-02-27T05:19:14.092Z,6.18
2023-02-27T05:21:55.790Z,7.13
2023-02-27T05:24:32.475Z,6.38
2023-02-27T05:27:17.654Z,7.53
2023-02-27T05:29:50.373Z,7.15
2023-02-27T05:32:31.833Z,7.35
2023-02-27T05:35:07.977Z,5.97
2023-02-27T05:37:41.050Z,6.70
2023-02-27T05:40:12.718Z,7.10
2023-02-27T05:42:44.856Z,6.78
2023-02-27T05:45:18.582Z,6.90
2023-02-27T05:47:53.426Z,7.00
2023-02-27T05:50:24.666Z,7.35
2023-02-27T05:52:54.301Z,8.43
2023-02-27T05:55:24.983Z,7.95
2023-02-27T05:58:01.433Z,6.93
2023-02-27T06:00:35.130Z,6.75
2023-02-27T06:03:04.772Z,6.78
2023-02-27T06:05:32.845Z,6.60
2023-02-27T06:08:03.124Z,7.15
2023-02-27T06:10:31.044Z,6.88
2023-02-27T06:12:58.817Z,5.93
2023-02-27T06:15:27.513Z,6.28
2023-02-27T06:17:56.375Z,6.43
2023-02-27T06:20:25.462Z,6.25
2023-02-27T06:22:53.569Z,6.65
2023-02-27T06:25:22.054Z,5.95
2023-02-27T06:27:50.118Z,6.28
2023-02-27T06:30:18.628Z,6.32
2023-02-27T06:32:46.486Z,5.70
2023-02-27T06:35:17.412Z,6.13
2023-02-27T06:37:46.635Z,6.70
2023-02-27T06:40:14.678Z,5.32
2023-02-27T06:42:43.887Z,6.82
2023-02-27T06:45:14.042Z,6.50
2023-02-27T06:47:42.463Z,6.53
2023-02-27T06:50:12.280Z,6.28
2023-02-27T06:52:40.922Z,6.00
2023-02-27T06:55:11.835Z,6.35
2023-02-27T06:57:39.605Z,5.63
2023-02-27T07:00:10.197Z,5.97
2023-02-27T07:02:37.908Z,6.13
2023-02-27T07:05:08.356Z,5.50
2023-02-27T07:07:38.247Z,5.68
2023-02-27T07:10:07.636Z,5.82
2023-02-27T07:12:36.755Z,5.13
2023-02-27T07:15:05.375Z,6.03
2023-02-27T07:17:33.176Z,5.50
2023-02-27T07:20:04.232Z,5.13
2023-02-27T07:22:32.027Z,6.80
2023-02-27T07:25:02.611Z,6.13
2023-02-27T07:27:30.691Z,5.22
2023-02-27T07:30:00.238Z,5.45
2023-02-27T07:32:28.101Z,5.68
2023-02-27T07:34:55.862Z,5.22
2023-02-27T07:37:23.580Z,5.93
2023-02-27T07:39:51.272Z,5.95
2023-02-27T07:42:19.017Z,5.43
2023-02-27T07:44:46.755Z,5.95
2023-02-27T07:47:17.659Z,4.85
2023-02-27T07:49:45.522Z,6.32
2023-02-27T07:52:13.360Z,6.13
2023-02-27T07:54:41.162Z,6.03
2023-02-27T07:57:08.941Z,5.85
2023-02-27T07:59:36.784Z,8.52
2023-02-27T08:02:04.608Z,6.18
2023-02-27T08:04:33.753Z,8.65
2023-02-27T08:07:03.376Z,12.30
2023-02-27T08:09:31.622Z,8.85
2023-02-27T08:11:59.460Z,11.70
2023-02-27T08:14:27.203Z,9.98
2023-02-27T08:16:55.019Z,7.07
2023-02-27T08:19:23.933Z,8.07
2023-02-27T08:21:53.177Z,6.63
2023-02-27T08:24:20.920Z,6.40
2023-02-27T08:26:48.692Z,5.90
2023-02-27T08:29:19.404Z,10.90
2023-02-27T08:31:47.863Z,6.88
2023-02-27T08:34:16.417Z,8.25
2023-02-27T08:36:44.223Z,6.47
2023-02-27T08:39:13.354Z,6.07
2023-02-27T08:41:41.542Z,6.68
2023-02-27T08:44:09.273Z,7.68
2023-02-27T08:46:37.022Z,8.50
2023-02-27T08:49:04.754Z,8.07
2023-02-27T08:51:32.540Z,6.70
2023-02-27T08:54:00.302Z,6.30
2023-02-27T08:56:29.918Z,6.88
2023-02-27T08:58:57.850Z,6.68
2023-02-27T09:01:29.846Z,6.15
2023-02-27T09:03:57.881Z,6.85
2023-02-27T09:06:29.321Z,6.55
2023-02-27T09:08:57.448Z,6.28
2023-02-27T09:11:26.480Z,6.60
2023-02-27T09:13:56.060Z,5.70
2023-02-27T09:16:24.544Z,6.53
2023-02-27T09:18:52.656Z,6.28
2023-02-27T09:21:20.685Z,6.80
2023-02-27T09:23:48.491Z,6.30
2023-02-27T09:26:35.741Z,7.20
2023-02-27T09:29:10.101Z,6.68
2023-02-27T09:31:37.845Z,6.53
2023-02-27T09:34:05.798Z,6.43
2023-02-27T09:36:34.074Z,7.05
2023-02-27T09:39:01.876Z,6.63
2023-02-27T09:41:49.220Z,7.15
2023-02-27T09:44:39.708Z,6.78
2023-02-27T09:47:17.290Z,7.88
2023-02-27T09:49:56.907Z,6.97
2023-02-27T09:52:24.791Z,7.57
2023-02-27T09:54:57.532Z,6.95
2023-02-27T09:57:34.969Z,7.22
2023-02-27T10:00:10.064Z,5.93
2023-02-27T10:02:55.491Z,6.15
2023-02-27T10:05:32.227Z,6.40
2023-02-27T10:08:07.548Z,6.38
2023-02-27T10:10:41.515Z,5.65
2023-02-27T10:13:41.432Z,5.40
2023-02-27T10:16:15.198Z,5.10
2023-02-27T10:18:52.026Z,5.15
2023-02-27T10:21:24.496Z,5.13
2023-02-27T10:23:59.023Z,5.35
2023-02-27T10:26:31.210Z,5.50
2023-02-27T10:28:59.905Z,5.40
2023-02-27T10:31:34.458Z,5.38
2023-02-27T10:34:03.773Z,5.18
2023-02-27T10:36:34.442Z,4.40
2023-02-27T10:39:07.206Z,4.88
2023-02-27T10:41:36.931Z,4.65
2023-02-27T10:44:05.594Z,5.05
2023-02-27T10:46:39.008Z,4.90
2023-02-27T10:49:17.586Z,4.63
2023-02-27T10:51:47.265Z,4.07
2023-02-27T10:54:22.009Z,3.85
2023-02-27T10:56:55.188Z,3.97
2023-02-27T10:59:26.266Z,3.30
2023-02-27T11:01:59.014Z,3.80
2023-02-27T11:04:30.560Z,4.10
2023-02-27T11:07:00.746Z,4.00
2023-02-27T11:09:32.145Z,3.22
2023-02-27T11:12:13.085Z,3.60
2023-02-27T11:14:51.071Z,3.80
2023-02-27T11:17:29.402Z,3.50
2023-02-27T11:20:01.010Z,4.20
2023-02-27T11:22:31.381Z,4.18
2023-02-27T11:25:20.652Z,4.28
2023-02-27T11:27:49.193Z,4.53
2023-02-27T11:30:28.007Z,4.43
2023-02-27T11:33:00.224Z,5.30
2023-02-27T11:35:31.221Z,5.13
2023-02-27T11:38:02.562Z,4.07
2023-02-27T11:40:33.438Z,3.90
2023-02-27T11:43:06.168Z,4.80
2023-02-27T11:46:21.465Z,3.95
2023-02-27T11:48:29.987Z,4.22
2023-02-27T11:51:26.031Z,4.25
2023-02-27T11:56:37.113Z,3.90
2023-02-27T11:59:15.314Z,4.03
2023-02-27T12:01:50.228Z,4.07
2023-02-27T12:04:24.854Z,3.58
2023-02-27T12:06:56.797Z,4.35
2023-02-27T12:09:40.270Z,4.63
2023-02-27T12:12:16.730Z,3.72
2023-02-27T12:14:50.441Z,4.18
2023-02-27T12:17:24.670Z,3.90
2023-02-27T12:20:02.725Z,3.58
2023-02-27T12:22:34.100Z,3.72
2023-02-27T12:25:07.149Z,3.72
2023-02-27T12:27:44.909Z,3.67
2023-02-27T12:30:18.925Z,3.95
2023-02-27T12:32:50.637Z,3.42
2023-02-27T12:35:23.488Z,3.72
2023-02-27T12:37:53.777Z,3.70
2023-02-27T12:40:28.904Z,3.80
2023-02-27T12:43:19.211Z,3.55
2023-02-27T12:45:57.113Z,3.47
2023-02-27T12:48:38.964Z,3.85
2023-02-27T12:51:21.379Z,4.22
2023-02-27T12:54:12.134Z,3.67
2023-02-27T12:56:52.061Z,3.55
2023-02-27T12:59:52.061Z,3.40
2023-02-27T13:02:38.106Z,3.83
2023-02-27T13:05:22.674Z,3.88
2023-02-27T13:07:58.775Z,4.10
2023-02-27T13:10:35.602Z,4.40
2023-02-27T13:13:11.665Z,4.25
2023-02-27T13:15:44.805Z,3.72
2023-02-27T13:18:29.807Z,3.45
2023-02-27T13:21:06.730Z,4.10
2023-02-27T13:23:48.583Z,3.72
2023-02-27T13:26:22.491Z,4.40
2023-02-27T13:28:51.051Z,4.18
2023-02-27T13:31:29.381Z,4.45
2023-02-27T13:34:11.165Z,4.50
2023-02-27T13:36:44.599Z,3.88
2023-02-27T13:39:52.597Z,3.90
2023-02-27T13:42:54.292Z,4.72
2023-02-27T13:45:51.373Z,4.13
2023-02-27T13:48:45.944Z,4.03
2023-02-27T13:51:47.298Z,4.53
2023-02-27T13:54:33.848Z,3.83
2023-02-27T13:57:25.341Z,4.25
2023-02-27T13:59:59.317Z,4.15
2023-02-27T14:02:36.133Z,5.13
2023-02-27T14:05:08.239Z,4.80
2023-02-27T14:07:54.233Z,4.40
2023-02-27T14:10:25.600Z,4.90
2023-02-27T14:12:54.716Z,4.78
2023-02-27T14:15:54.971Z,4.75
2023-02-27T14:18:59.452Z,4.72
2023-02-27T14:22:00.358Z,4.45
2023-02-27T14:24:41.408Z,5.38
2023-02-27T14:27:19.494Z,4.88
2023-02-27T14:29:49.387Z,5.25
2023-02-27T14:32:21.655Z,5.28
2023-02-27T14:34:50.340Z,5.00
2023-02-27T14:37:23.389Z,6.05
2023-02-27T14:39:53.456Z,5.45
2023-02-27T14:42:37.628Z,5.10
2023-02-27T14:45:15.151Z,5.00
2023-02-27T14:47:43.644Z,5.38
2023-02-27T14:50:25.069Z,4.93
2023-02-27T14:52:53.241Z,5.55
2023-02-27T14:55:27.982Z,4.97
2023-02-27T14:57:58.493Z,5.32
2023-02-27T15:00:40.176Z,5.30
2023-02-27T15:03:18.363Z,5.28
2023-02-27T15:05:47.045Z,5.20
2023-02-27T15:08:18.666Z,5.60
2023-02-27T15:10:47.234Z,5.40
2023-02-27T15:13:28.519Z,5.95
2023-02-27T15:16:21.063Z,4.90
2023-02-27T15:18:50.767Z,5.72
2023-02-27T15:21:19.705Z,5.68
2023-02-27T15:23:55.512Z,5.05
2023-02-27T15:26:23.439Z,5.97
2023-02-27T15:28:51.592Z,5.28
2023-02-27T15:31:23.560Z,5.70
2023-02-27T15:33:55.223Z,5.63
2023-02-27T15:36:25.703Z,4.88
2023-02-27T15:39:07.146Z,4.78
2023-02-27T15:41:38.590Z,5.00
2023-02-27T15:44:06.708Z,4.82
2023-02-27T15:46:35.944Z,4.65
2023-02-27T15:49:03.939Z,5.32
2023-02-27T15:51:33.695Z,5.03
2023-02-27T15:54:01.789Z,6.00
2023-02-27T15:56:35.164Z,4.90
2023-02-27T15:59:03.525Z,5.20
2023-02-27T16:01:35.831Z,4.72
2023-02-27T16:04:08.587Z,5.20
2023-02-27T16:06:39.151Z,4.85
2023-02-27T16:09:17.719Z,4.72
2023-02-27T16:11:45.726Z,4.30
2023-02-27T16:14:40.976Z,4.97
2023-02-27T16:17:31.324Z,5.13
2023-02-27T16:20:02.269Z,4.60
2023-02-27T16:22:30.633Z,4.65
2023-02-27T16:25:10.630Z,4.50
2023-02-27T16:27:39.920Z,4.90
2023-02-27T16:30:13.192Z,4.68
2023-02-27T16:32:44.031Z,4.82
2023-02-27T16:35:19.472Z,5.28
2023-02-27T16:37:48.116Z,5.57
2023-02-27T16:40:20.246Z,4.78
2023-02-27T16:42:48.191Z,5.55
2023-02-27T16:45:18.237Z,5.20
2023-02-27T16:47:50.889Z,5.75
2023-02-27T16:50:24.744Z,5.78
2023-02-27T16:52:52.543Z,5.25
2023-02-27T16:55:20.564Z,5.50
2023-02-27T16:57:48.440Z,5.95
2023-02-27T17:00:24.140Z,5.00
2023-02-27T17:02:53.249Z,5.13
2023-02-27T17:05:21.026Z,6.05
2023-02-27T17:07:48.803Z,5.38
2023-02-27T17:10:17.726Z,6.93
2023-02-27T17:12:47.012Z,5.93
2023-02-27T17:15:15.108Z,8.93
2023-02-27T17:17:43.253Z,6.18
2023-02-27T17:20:14.472Z,7.07
2023-02-27T17:22:43.859Z,6.35
2023-02-27T17:25:13.498Z,8.75
2023-02-27T17:27:43.173Z,6.45
2023-02-27T17:30:12.169Z,6.53
2023-02-27T17:32:39.940Z,6.53
2023-02-27T17:35:09.008Z,5.85
2023-02-27T17:37:38.319Z,6.32
2023-02-27T17:40:08.166Z,7.10
2023-02-27T17:42:39.876Z,9.35
2023-02-27T17:45:11.491Z,6.97
2023-02-27T17:47:39.236Z,8.15
2023-02-27T17:50:12.605Z,12.27
2023-02-27T17:52:41.790Z,8.25
2023-02-27T17:55:10.972Z,9.15
2023-02-27T17:57:39.927Z,7.03
2023-02-27T18:00:11.804Z,7.63
2023-02-27T18:02:39.514Z,7.18
2023-02-27T18:05:08.274Z,9.50
2023-02-27T18:07:36.113Z,8.55
2023-02-27T18:10:09.164Z,9.95
2023-02-27T18:12:36.964Z,7.80
2023-02-27T18:15:07.228Z,9.43
2023-02-27T18:17:35.207Z,7.80
2023-02-27T18:20:05.249Z,8.73
2023-02-27T18:22:33.187Z,8.52
2023-02-27T18:25:01.060Z,8.40
2023-02-27T18:27:30.184Z,8.38
2023-02-27T18:29:59.167Z,8.32
2023-02-27T18:32:27.137Z,8.90
2023-02-27T18:34:54.878Z,8.27
2023-02-27T18:37:24.687Z,8.50
2023-02-27T18:39:52.626Z,8.40
2023-02-27T18:42:20.329Z,8.98
2023-02-27T18:44:49.531Z,9.40
2023-02-27T18:47:17.289Z,8.63
2023-02-27T18:49:46.020Z,8.77
2023-02-27T18:52:13.808Z,9.20
2023-02-27T18:54:43.160Z,8.95
2023-02-27T18:57:11.194Z,8.95
2023-02-27T18:59:41.204Z,9.10
2023-02-27T19:02:15.857Z,9.93
2023-02-27T19:04:43.631Z,9.73
2023-02-27T19:07:11.367Z,9.40
2023-02-27T19:09:39.129Z,8.93
2023-02-27T19:12:07.098Z,8.60
2023-02-27T19:14:34.791Z,9.48
2023-02-27T19:17:02.465Z,8.13
2023-02-27T19:19:31.580Z,7.93
2023-02-27T19:22:01.028Z,9.07
2023-02-27T19:24:28.772Z,9.35
2023-02-27T19:26:56.493Z,9.40
2023-02-27T19:29:27.115Z,10.75
2023-02-27T19:31:56.035Z,10.27
2023-02-27T19:34:23.845Z,9.45
2023-02-27T19:36:52.951Z,9.10
2023-02-27T19:39:22.231Z,8.35
2023-02-27T19:41:50.029Z,8.13
2023-02-27T19:44:17.845Z,7.57
2023-02-27T19:46:46.416Z,7.97
2023-02-27T19:49:16.531Z,8.88
2023-02-27T19:51:44.479Z,8.60
2023-02-27T19:54:15.385Z,8.38
2023-02-27T19:56:43.516Z,8.07
2023-02-27T19:59:12.361Z,9.10
2023-02-27T20:01:41.478Z,9.00
2023-02-27T20:04:10.974Z,8.43
2023-02-27T20:06:42.590Z,7.35
2023-02-27T20:09:13.169Z,8.10
2023-02-27T20:11:43.423Z,8.85
2023-02-27T20:14:12.213Z,8.57
2023-02-27T20:16:41.249Z,8.30
2023-02-27T20:19:11.573Z,8.38
2023-02-27T20:21:39.500Z,8.38
2023-02-27T20:24:10.105Z,8.82
2023-02-27T20:26:40.206Z,8.65
2023-02-27T20:29:11.801Z,8.48
2023-02-27T20:31:41.712Z,7.65
2023-02-27T20:34:12.216Z,7.60
2023-02-27T20:36:41.540Z,7.93
2023-02-27T20:39:11.030Z,8.00
2023-02-27T20:41:40.224Z,7.93
2023-02-27T20:44:11.354Z,7.95
2023-02-27T20:46:40.916Z,7.68
2023-02-27T20:49:10.235Z,7.95
2023-02-27T20:51:41.844Z,7.85
2023-02-27T20:54:13.417Z,7.70
2023-02-27T20:56:43.207Z,7.53
2023-02-27T20:59:15.731Z,7.00
2023-02-27T21:01:51.103Z,6.53
2023-02-27T21:06:47.592Z,6.43
2023-02-27T21:09:16.097Z,6.93
2023-02-27T21:11:43.884Z,5.65
2023-02-27T21:14:13.351Z,5.65
2023-02-27T21:16:41.359Z,6.55
2023-02-27T21:19:09.509Z,5.90
2023-02-27T21:21:37.834Z,5.88
2023-02-27T21:24:06.654Z,5.57
2023-02-27T21:26:37.875Z,5.93
2023-02-27T21:29:09.515Z,6.18
2023-02-27T21:31:40.386Z,6.75
2023-02-27T21:34:11.647Z,5.30
2023-02-27T21:36:42.530Z,5.03
2023-02-27T21:39:13.607Z,5.30
2023-02-27T21:41:41.989Z,4.90
2023-02-27T21:44:12.896Z,4.55
2023-02-27T21:46:42.409Z,4.78
2023-02-27T21:49:13.717Z,5.10
2023-02-27T21:51:44.612Z,4.60
2023-02-27T21:54:14.279Z,4.70
2023-02-27T21:56:42.549Z,4.70
2023-02-27T21:59:10.950Z,5.43
2023-02-27T22:01:39.538Z,4.60
2023-02-27T22:04:09.219Z,4.97
2023-02-27T22:06:39.421Z,4.70
2023-02-27T22:09:07.980Z,5.25
2023-02-27T22:11:36.207Z,4.80
2023-02-27T22:14:06.184Z,4.65
2023-02-27T22:16:34.245Z,5.53
2023-02-27T22:19:06.178Z,5.65
2023-02-27T22:21:36.463Z,5.53
2023-02-27T22:24:04.575Z,5.03
2023-02-27T22:26:33.392Z,5.05
2023-02-27T22:29:01.583Z,5.32
2023-02-27T22:31:31.715Z,4.80
2023-02-27T22:34:01.856Z,4.82
2023-02-27T22:36:30.959Z,4.78
2023-02-27T22:39:01.054Z,5.18
2023-02-27T22:41:31.568Z,4.82
2023-02-27T22:44:00.781Z,4.70
2023-02-27T22:46:30.843Z,4.70
2023-02-27T22:49:00.639Z,5.03
2023-02-27T22:51:29.360Z,5.40
2023-02-27T22:53:58.758Z,5.40
2023-02-27T23:00:40.027Z,5.05
2023-02-27T23:03:08.481Z,4.53
2023-02-27T23:05:36.208Z,5.22
2023-02-27T23:08:03.919Z,5.53
2023-02-27T23:10:31.657Z,5.75
2023-02-27T23:12:59.338Z,5.32
2023-02-27T23:15:27.115Z,5.13
2023-02-27T23:17:58.436Z,5.15
2023-02-27T23:20:27.314Z,5.35
2023-02-27T23:22:55.077Z,6.10
2023-02-27T23:25:22.774Z,5.85
2023-02-27T23:27:50.530Z,4.82
2023-02-27T23:30:18.536Z,5.70
2023-02-27T23:32:46.246Z,5.20
2023-02-27T23:35:17.241Z,5.65
2023-02-27T23:37:44.965Z,5.38
2023-02-27T23:40:16.368Z,6.03
2023-02-27T23:42:44.285Z,5.53
2023-02-27T23:45:12.629Z,5.85
2023-02-27T23:47:43.011Z,5.80
2023-02-27T23:50:12.296Z,4.97
2023-02-27T23:52:41.408Z,5.18
2023-02-27T23:55:10.118Z,5.78
2023-02-27T23:57:37.991Z,5.28
